createdAt,value
2018-12-03T00:00:17.095Z,12.15
2018-12-03T00:02:45.739Z,12.13
2018-12-03T00:05:14.295Z,12.20
2018-12-03T00:07:42.873Z,12.22
2018-12-03T00:10:11.397Z,12.21
2018-12-03T00:12:39.936Z,12.22
2018-12-03T00:15:08.808Z,12.27
2018-12-03T00:17:37.547Z,12.28
2018-12-03T00:20:08.153Z,12.28
2018-12-03T00:22:36.756Z,12.25
2018-12-03T00:25:06.996Z,12.25
2018-12-03T00:27:35.723Z,12.27
2018-12-03T00:30:04.840Z,12.25
2018-12-03T00:32:33.364Z,12.28
2018-12-03T00:35:01.880Z,12.28
2018-12-03T00:37:30.444Z,12.31
2018-12-03T00:39:58.971Z,12.28
2018-12-03T00:42:27.532Z,12.32
2018-12-03T00:44:56.100Z,12.29
2018-12-03T00:47:24.643Z,12.34
2018-12-03T00:49:53.351Z,12.31
2018-12-03T00:52:21.910Z,12.36
2018-12-03T00:54:50.403Z,12.40
2018-12-03T00:57:19.015Z,12.46
2018-12-03T00:59:47.560Z,12.40
2018-12-03T01:02:21.412Z,12.38
2018-12-03T01:04:49.920Z,12.37
2018-12-03T01:07:18.417Z,12.40
2018-12-03T01:09:47.017Z,12.45
2018-12-03T01:12:15.597Z,12.42
2018-12-03T01:14:44.181Z,12.42
2018-12-03T01:17:12.769Z,12.39
2018-12-03T01:19:41.336Z,12.42
2018-12-03T01:22:09.920Z,12.41
2018-12-03T01:24:38.495Z,12.42
2018-12-03T01:27:07.020Z,12.47
2018-12-03T01:29:35.600Z,12.46
2018-12-03T01:32:04.167Z,12.47
2018-12-03T01:34:32.674Z,12.42
2018-12-03T01:37:07.641Z,12.47
2018-12-03T01:39:36.158Z,12.44
2018-12-03T01:42:04.768Z,12.45
2018-12-03T01:44:33.337Z,12.53
2018-12-03T01:47:01.874Z,12.52
2018-12-03T01:49:30.420Z,12.46
2018-12-03T01:51:58.948Z,12.49
2018-12-03T01:54:27.545Z,12.49
2018-12-03T01:56:56.148Z,12.48
2018-12-03T01:59:24.704Z,12.48
2018-12-03T02:01:53.372Z,12.45
2018-12-03T02:04:21.935Z,12.42
2018-12-03T02:06:50.476Z,12.43
2018-12-03T02:09:19.051Z,12.44
2018-12-03T02:11:47.647Z,12.42
2018-12-03T02:14:16.273Z,12.45
2018-12-03T02:16:44.881Z,12.45
2018-12-03T02:19:13.510Z,12.48
2018-12-03T02:21:42.003Z,12.46
2018-12-03T02:24:10.567Z,12.51
2018-12-03T02:26:39.208Z,12.54
2018-12-03T02:29:07.763Z,12.55
2018-12-03T02:31:36.279Z,12.52
2018-12-03T02:34:04.806Z,12.54
2018-12-03T02:36:33.415Z,12.54
2018-12-03T02:39:01.975Z,12.58
2018-12-03T02:41:30.483Z,12.58
2018-12-03T02:43:59.010Z,12.59
2018-12-03T02:46:27.550Z,12.53
2018-12-03T02:48:56.111Z,12.51
2018-12-03T02:51:24.706Z,12.53
2018-12-03T02:53:53.255Z,12.55
2018-12-03T02:56:21.809Z,12.57
2018-12-03T02:58:50.352Z,12.58
2018-12-03T03:01:18.855Z,12.57
2018-12-03T03:03:47.540Z,12.55
2018-12-03T03:06:16.051Z,12.57
2018-12-03T03:08:44.545Z,12.56
2018-12-03T03:11:13.100Z,12.58
2018-12-03T03:13:41.695Z,12.59
2018-12-03T03:16:10.215Z,12.57
2018-12-03T03:18:38.734Z,12.58
2018-12-03T03:21:07.358Z,12.60
2018-12-03T03:23:35.843Z,12.56
2018-12-03T03:26:04.432Z,12.55
2018-12-03T03:28:32.989Z,12.57
2018-12-03T03:31:01.535Z,12.56
2018-12-03T03:33:30.055Z,12.66
2018-12-03T03:35:58.694Z,12.56
2018-12-03T03:38:27.269Z,12.57
2018-12-03T03:40:55.778Z,12.57
2018-12-03T03:43:24.370Z,12.57
2018-12-03T03:45:52.927Z,12.53
2018-12-03T03:48:21.449Z,12.48
2018-12-03T03:50:49.983Z,12.48
2018-12-03T03:53:18.562Z,12.49
2018-12-03T03:55:47.114Z,12.57
2018-12-03T03:58:15.745Z,12.53
2018-12-03T04:00:44.268Z,12.45
2018-12-03T04:03:12.800Z,12.43
2018-12-03T04:05:41.409Z,12.36
2018-12-03T04:08:09.972Z,12.38
2018-12-03T04:10:38.540Z,12.32
2018-12-03T04:13:07.027Z,12.19
2018-12-03T04:15:35.573Z,12.15
2018-12-03T04:18:04.136Z,12.17
2018-12-03T04:20:33.301Z,12.18
2018-12-03T04:23:01.809Z,12.15
2018-12-03T04:25:30.407Z,12.18
2018-12-03T04:27:58.958Z,12.19
2018-12-03T04:30:27.490Z,12.19
2018-12-03T04:32:56.071Z,12.23
2018-12-03T04:35:26.120Z,12.22
2018-12-03T04:37:54.738Z,12.25
2018-12-03T04:40:23.362Z,12.19
2018-12-03T04:42:51.905Z,12.25
2018-12-03T04:45:20.701Z,12.21
2018-12-03T04:47:50.227Z,12.20
2018-12-03T04:50:19.889Z,12.23
2018-12-03T04:52:48.430Z,12.19
2018-12-03T04:55:18.257Z,12.18
2018-12-03T04:57:46.854Z,12.19
2018-12-03T05:00:17.126Z,12.22
2018-12-03T05:02:46.906Z,12.16
2018-12-03T05:05:15.581Z,12.21
2018-12-03T05:08:16.011Z,12.33
2018-12-03T05:10:44.747Z,12.31
2018-12-03T05:13:14.152Z,12.24
2018-12-03T05:15:44.291Z,12.25
2018-12-03T05:18:12.946Z,12.23
2018-12-03T05:20:41.714Z,12.17
2018-12-03T05:23:10.752Z,12.09
2018-12-03T05:25:39.748Z,12.15
2018-12-03T05:28:08.443Z,12.11
2018-12-03T05:30:37.144Z,12.12
2018-12-03T05:33:06.111Z,12.15
2018-12-03T05:35:35.064Z,12.11
2018-12-03T05:38:03.737Z,12.15
2018-12-03T05:40:32.787Z,12.09
2018-12-03T05:43:01.898Z,12.00
2018-12-03T05:45:32.304Z,11.98
2018-12-03T05:48:01.839Z,12.00
2018-12-03T05:50:30.542Z,12.00
2018-12-03T05:52:59.656Z,11.93
2018-12-03T05:55:29.307Z,11.90
2018-12-03T05:57:57.960Z,11.81
2018-12-03T06:00:26.666Z,11.78
2018-12-03T06:02:55.418Z,11.75
2018-12-03T06:05:24.138Z,11.78
2018-12-03T06:07:53.278Z,11.84
2018-12-03T06:10:23.067Z,11.83
2018-12-03T06:12:52.290Z,11.91
2018-12-03T06:15:22.041Z,11.90
2018-12-03T06:17:52.507Z,11.80
2018-12-03T06:20:22.111Z,11.77
2018-12-03T06:22:54.679Z,11.74
2018-12-03T06:25:25.185Z,11.78
2018-12-03T06:27:54.359Z,11.72
2018-12-03T06:30:24.097Z,11.68
2018-12-03T06:32:52.860Z,11.63
2018-12-03T06:35:22.972Z,11.65
2018-12-03T06:37:52.483Z,11.64
2018-12-03T06:40:28.507Z,11.53
2018-12-03T06:42:57.714Z,11.49
2018-12-03T06:45:26.923Z,11.48
2018-12-03T06:48:33.244Z,11.49
2018-12-03T06:51:01.914Z,11.53
2018-12-03T06:53:30.633Z,11.47
2018-12-03T06:56:01.128Z,11.32
2018-12-03T06:58:30.181Z,11.21
2018-12-03T07:00:59.341Z,11.25
2018-12-03T07:03:28.688Z,11.29
2018-12-03T07:05:57.722Z,11.26
2018-12-03T07:08:28.061Z,11.25
2018-12-03T07:10:57.251Z,11.30
2018-12-03T07:13:25.916Z,11.10
2018-12-03T07:15:56.278Z,11.06
2018-12-03T07:18:26.884Z,11.02
2018-12-03T07:20:55.858Z,10.94
2018-12-03T07:23:24.499Z,10.99
2018-12-03T07:25:53.759Z,10.92
2018-12-03T07:28:23.533Z,10.93
2018-12-03T07:30:52.316Z,10.88
2018-12-03T07:33:22.415Z,10.98
2018-12-03T07:35:51.989Z,10.97
2018-12-03T07:38:20.685Z,11.03
2018-12-03T07:40:50.823Z,11.03
2018-12-03T07:43:19.871Z,10.99
2018-12-03T07:45:50.343Z,10.96
2018-12-03T07:48:19.246Z,10.87
2018-12-03T07:50:47.944Z,10.72
2018-12-03T07:53:17.097Z,10.70
2018-12-03T07:55:46.173Z,10.66
2018-12-03T07:58:17.021Z,10.71
2018-12-03T08:00:50.191Z,10.67
2018-12-03T08:03:19.277Z,10.73
2018-12-03T08:05:47.941Z,10.91
2018-12-03T08:08:17.344Z,11.04
2018-12-03T08:10:58.066Z,11.13
2018-12-03T08:13:26.735Z,11.26
2018-12-03T08:15:55.730Z,11.36
2018-12-03T08:18:25.237Z,11.33
2018-12-03T08:21:03.298Z,11.43
2018-12-03T08:23:43.277Z,11.43
2018-12-03T08:26:12.338Z,11.48
2018-12-03T08:28:41.601Z,11.56
2018-12-03T08:31:10.736Z,11.64
2018-12-03T08:33:39.509Z,11.70
2018-12-03T08:36:08.738Z,11.73
2018-12-03T08:38:39.270Z,11.72
2018-12-03T08:41:08.282Z,11.69
2018-12-03T08:43:38.742Z,11.75
2018-12-03T08:46:11.352Z,11.78
2018-12-03T08:48:43.781Z,11.79
2018-12-03T08:51:14.320Z,11.80
2018-12-03T08:53:48.125Z,11.84
2018-12-03T08:56:16.835Z,11.92
2018-12-03T08:58:45.470Z,11.94
2018-12-03T09:01:22.116Z,12.01
2018-12-03T09:04:17.666Z,11.97
2018-12-03T09:06:49.045Z,12.06
2018-12-03T09:09:18.844Z,12.11
2018-12-03T09:11:51.924Z,12.22
2018-12-03T09:14:27.931Z,12.29
2018-12-03T09:17:02.308Z,12.29
2018-12-03T09:19:28.933Z,12.25
2018-12-03T09:21:58.109Z,12.29
2018-12-03T09:24:26.826Z,12.33
2018-12-03T09:26:56.158Z,12.32
2018-12-03T09:29:25.871Z,12.44
2018-12-03T09:31:55.002Z,12.52
2018-12-03T09:34:23.679Z,12.27
2018-12-03T09:36:52.333Z,12.34
2018-12-03T09:39:21.123Z,12.21
2018-12-03T09:41:50.493Z,12.10
2018-12-03T09:44:19.166Z,12.08
2018-12-03T09:46:48.784Z,12.04
2018-12-03T09:49:17.819Z,12.11
2018-12-03T09:51:46.539Z,12.17
2018-12-03T09:54:15.763Z,12.17
2018-12-03T09:56:52.525Z,12.31
2018-12-03T09:59:22.817Z,12.26
2018-12-03T10:01:55.038Z,12.18
2018-12-03T10:04:41.489Z,12.07
2018-12-03T10:07:17.330Z,11.99
2018-12-03T10:09:46.022Z,12.04
2018-12-03T10:12:18.220Z,12.03
2018-12-03T10:14:47.152Z,12.12
2018-12-03T10:17:16.218Z,12.16
2018-12-03T10:19:49.787Z,12.24
2018-12-03T10:22:18.772Z,12.12
2018-12-03T10:24:47.719Z,11.88
2018-12-03T10:27:16.800Z,11.93
2018-12-03T10:29:45.484Z,11.90
2018-12-03T10:32:17.530Z,11.90
2018-12-03T10:34:46.280Z,12.02
2018-12-03T10:37:15.377Z,12.06
2018-12-03T10:39:44.071Z,12.16
2018-12-03T10:42:17.602Z,12.03
2018-12-03T10:44:46.791Z,12.17
2018-12-03T10:47:15.560Z,12.05
2018-12-03T10:49:47.131Z,12.05
2018-12-03T10:52:19.559Z,12.04
2018-12-03T10:54:48.485Z,12.18
2018-12-03T10:57:18.761Z,12.24
2018-12-03T10:59:52.396Z,12.35
2018-12-03T11:02:32.441Z,12.50
2018-12-03T11:05:19.406Z,12.46
2018-12-03T11:07:48.123Z,12.64
2018-12-03T11:10:16.795Z,12.23
2018-12-03T11:12:54.029Z,12.07
2018-12-03T11:15:23.111Z,12.11
2018-12-03T11:17:51.925Z,12.12
2018-12-03T11:20:20.975Z,12.27
2018-12-03T11:22:51.890Z,12.22
2018-12-03T11:25:23.747Z,12.09
2018-12-03T11:27:52.551Z,12.16
2018-12-03T11:30:21.202Z,12.20
2018-12-03T11:32:49.910Z,12.25
2018-12-03T11:35:26.358Z,12.41
2018-12-03T11:38:23.777Z,12.36
2018-12-03T11:40:54.669Z,12.64
2018-12-03T11:43:25.203Z,12.62
2018-12-03T11:45:54.368Z,12.44
2018-12-03T11:48:23.258Z,12.55
2018-12-03T11:50:52.338Z,12.59
2018-12-03T11:53:21.305Z,12.47
2018-12-03T11:55:49.979Z,12.45
2018-12-03T11:58:19.295Z,12.59
2018-12-03T12:00:48.309Z,12.73
2018-12-03T12:03:17.345Z,12.83
2018-12-03T12:05:46.046Z,12.84
2018-12-03T12:08:15.466Z,12.81
2018-12-03T12:10:44.495Z,12.80
2018-12-03T12:13:13.837Z,12.90
2018-12-03T12:15:43.369Z,12.74
2018-12-03T12:18:13.531Z,12.87
2018-12-03T12:20:42.366Z,12.86
2018-12-03T12:23:11.489Z,12.86
2018-12-03T12:25:40.569Z,12.82
2018-12-03T12:28:09.611Z,12.71
2018-12-03T12:30:41.164Z,12.83
2018-12-03T12:33:09.836Z,12.91
2018-12-03T12:35:38.509Z,12.92
2018-12-03T12:38:09.666Z,12.82
2018-12-03T12:40:38.663Z,12.90
2018-12-03T12:43:08.306Z,13.01
2018-12-03T12:46:10.326Z,13.20
2018-12-03T12:48:39.002Z,13.01
2018-12-03T12:51:07.795Z,13.00
2018-12-03T12:53:36.461Z,12.98
2018-12-03T12:56:06.859Z,13.00
2018-12-03T12:58:36.575Z,12.99
2018-12-03T13:01:05.952Z,12.82
2018-12-03T13:03:34.942Z,12.76
2018-12-03T13:06:03.725Z,12.88
2018-12-03T13:08:32.799Z,13.06
2018-12-03T13:11:03.668Z,13.03
2018-12-03T13:13:32.680Z,13.05
2018-12-03T13:16:03.729Z,12.97
2018-12-03T13:18:33.113Z,12.78
2018-12-03T13:21:03.842Z,12.57
2018-12-03T13:23:32.557Z,12.67
2018-12-03T13:26:01.250Z,12.71
2018-12-03T13:28:30.278Z,12.74
2018-12-03T13:30:59.051Z,12.67
2018-12-03T13:33:27.839Z,12.70
2018-12-03T13:35:57.182Z,12.53
2018-12-03T13:38:26.132Z,12.47
2018-12-03T13:40:55.168Z,12.42
2018-12-03T13:43:24.155Z,12.47
2018-12-03T13:45:52.845Z,12.40
2018-12-03T13:48:21.968Z,12.42
2018-12-03T13:50:50.614Z,12.40
2018-12-03T13:53:19.588Z,12.31
2018-12-03T13:55:48.302Z,12.26
2018-12-03T13:58:17.333Z,12.16
2018-12-03T14:00:46.212Z,12.26
2018-12-03T14:03:20.655Z,12.24
2018-12-03T14:06:31.032Z,12.23
2018-12-03T14:09:55.393Z,12.21
2018-12-03T14:12:44.393Z,12.20
2018-12-03T14:16:05.917Z,12.15
2018-12-03T14:18:40.540Z,12.19
2018-12-03T14:21:27.532Z,12.08
2018-12-03T14:23:57.975Z,12.09
2018-12-03T14:26:26.629Z,12.11
2018-12-03T14:28:55.321Z,12.09
2018-12-03T14:31:25.335Z,12.03
2018-12-03T14:33:54.278Z,11.90
2018-12-03T14:36:25.655Z,11.89
2018-12-03T14:38:54.514Z,11.91
2018-12-03T14:41:23.461Z,11.82
2018-12-03T14:43:55.024Z,11.81
2018-12-03T14:46:25.313Z,11.73
2018-12-03T14:48:53.965Z,11.76
2018-12-03T14:51:22.666Z,11.74
2018-12-03T14:53:54.063Z,11.67
2018-12-03T14:56:22.718Z,11.69
2018-12-03T14:58:52.056Z,11.66
2018-12-03T15:01:21.147Z,11.68
2018-12-03T15:03:50.153Z,11.71
2018-12-03T15:06:18.862Z,11.66
2018-12-03T15:08:48.351Z,11.59
2018-12-03T15:11:16.990Z,11.47
2018-12-03T15:13:46.021Z,11.52
2018-12-03T15:16:14.773Z,11.33
2018-12-03T15:18:43.838Z,11.18
2018-12-03T15:21:14.438Z,11.03
2018-12-03T15:23:44.518Z,11.09
2018-12-03T15:26:13.221Z,11.24
2018-12-03T15:28:42.357Z,11.33
2018-12-03T15:31:12.378Z,11.39
2018-12-03T15:33:41.261Z,11.30
2018-12-03T15:36:10.233Z,11.22
2018-12-03T15:38:39.038Z,11.13
2018-12-03T15:41:08.063Z,11.09
2018-12-03T15:43:37.940Z,11.01
2018-12-03T15:46:06.691Z,10.90
2018-12-03T15:48:35.357Z,10.81
2018-12-03T15:51:04.032Z,10.72
2018-12-03T15:53:32.716Z,10.67
2018-12-03T15:56:01.758Z,10.68
2018-12-03T15:58:30.471Z,10.71
2018-12-03T16:00:59.253Z,10.76
2018-12-03T16:03:27.940Z,10.76
2018-12-03T16:05:56.955Z,10.78
2018-12-03T16:08:26.220Z,10.77
2018-12-03T16:10:54.888Z,10.84
2018-12-03T16:13:23.538Z,10.88
2018-12-03T16:15:52.201Z,10.96
2018-12-03T16:18:20.973Z,10.95
2018-12-03T16:20:49.652Z,10.96
2018-12-03T16:23:18.299Z,10.90
2018-12-03T16:25:47.403Z,10.85
2018-12-03T16:28:16.103Z,10.83
2018-12-03T16:30:44.776Z,10.87
2018-12-03T16:33:13.544Z,10.96
2018-12-03T16:35:42.545Z,11.00
2018-12-03T16:38:11.191Z,11.01
2018-12-03T16:40:40.723Z,10.99
2018-12-03T16:43:10.498Z,11.02
2018-12-03T16:45:39.244Z,11.08
2018-12-03T16:48:08.055Z,11.10
2018-12-03T16:50:37.566Z,11.15
2018-12-03T16:53:07.090Z,11.21
2018-12-03T16:55:36.438Z,11.18
2018-12-03T16:58:06.280Z,11.13
2018-12-03T17:00:35.215Z,11.07
2018-12-03T17:03:03.973Z,11.11
2018-12-03T17:05:33.682Z,11.18
2018-12-03T17:08:02.386Z,11.17
2018-12-03T17:10:31.203Z,11.16
2018-12-03T17:13:00.419Z,11.12
2018-12-03T17:15:29.082Z,11.13
2018-12-03T17:17:57.935Z,11.20
2018-12-03T17:20:54.202Z,11.19
2018-12-03T17:23:39.739Z,11.22
2018-12-03T17:26:08.888Z,11.30
2018-12-03T17:28:37.977Z,11.28
2018-12-03T17:31:07.121Z,11.33
2018-12-03T17:33:36.855Z,11.29
2018-12-03T17:36:06.222Z,11.28
2018-12-03T17:38:35.529Z,11.23
2018-12-03T17:41:04.577Z,11.21
2018-12-03T17:43:33.256Z,11.22
2018-12-03T17:46:02.830Z,11.22
2018-12-03T17:48:31.471Z,11.16
2018-12-03T17:51:00.605Z,11.13
2018-12-03T17:53:31.126Z,11.15
2018-12-03T17:56:00.698Z,11.01
2018-12-03T17:58:29.473Z,10.94
2018-12-03T18:00:58.644Z,10.86
2018-12-03T18:03:30.092Z,10.90
2018-12-03T18:05:59.297Z,10.98
2018-12-03T18:08:28.704Z,10.98
2018-12-03T18:10:59.498Z,11.00
2018-12-03T18:13:28.400Z,11.07
2018-12-03T18:15:57.050Z,11.14
2018-12-03T18:18:25.780Z,11.31
2018-12-03T18:20:54.784Z,11.33
2018-12-03T18:23:25.611Z,11.41
2018-12-03T18:25:55.122Z,11.51
2018-12-03T18:28:23.800Z,11.53
2018-12-03T18:30:52.457Z,11.56
2018-12-03T18:33:22.562Z,11.58
2018-12-03T18:35:51.757Z,11.65
2018-12-03T18:38:21.048Z,11.69
2018-12-03T18:40:50.357Z,11.77
2018-12-03T18:43:19.928Z,11.74
2018-12-03T18:45:48.589Z,11.68
2018-12-03T18:48:17.820Z,11.73
2018-12-03T18:50:49.295Z,11.76
2018-12-03T18:53:21.031Z,11.76
2018-12-03T18:55:51.305Z,11.81
2018-12-03T18:58:35.613Z,11.82
2018-12-03T19:01:04.593Z,11.82
2018-12-03T19:03:33.605Z,11.76
2018-12-03T19:06:03.716Z,11.75
2018-12-03T19:08:33.151Z,11.68
2018-12-03T19:11:02.491Z,11.71
2018-12-03T19:13:31.286Z,11.71
2018-12-03T19:16:00.113Z,11.65
2018-12-03T19:18:29.205Z,11.69
2018-12-03T19:20:58.623Z,11.74
2018-12-03T19:23:30.132Z,11.65
2018-12-03T19:26:02.894Z,11.66
2018-12-03T19:28:33.649Z,11.65
2018-12-03T19:31:02.428Z,11.52
2018-12-03T19:33:31.421Z,11.39
2018-12-03T19:36:00.592Z,11.21
2018-12-03T19:38:29.304Z,11.08
2018-12-03T19:40:58.305Z,10.97
2018-12-03T19:43:27.502Z,10.82
2018-12-03T19:45:56.261Z,10.70
2018-12-03T19:48:27.066Z,10.61
2018-12-03T19:50:56.280Z,10.56
2018-12-03T19:53:27.145Z,10.49
2018-12-03T19:55:55.880Z,10.43
2018-12-03T19:58:33.935Z,10.46
2018-12-03T20:01:03.214Z,10.49
2018-12-03T20:03:31.868Z,10.42
2018-12-03T20:06:00.642Z,10.32
2018-12-03T20:08:29.878Z,10.30
2018-12-03T20:10:59.190Z,10.28
2018-12-03T20:13:28.290Z,10.18
2018-12-03T20:15:57.702Z,10.12
2018-12-03T20:18:27.080Z,10.11
2018-12-03T20:20:59.076Z,10.03
2018-12-03T20:23:43.161Z,10.08
2018-12-03T20:26:22.189Z,9.96
2018-12-03T20:29:20.010Z,9.92
2018-12-03T20:32:29.689Z,9.95
2018-12-03T20:35:38.569Z,9.97
2018-12-03T20:38:30.037Z,10.04
2018-12-03T20:41:24.230Z,9.96
2018-12-03T20:43:55.052Z,9.85
2018-12-03T20:46:39.359Z,9.76
2018-12-03T20:49:36.105Z,9.63
2018-12-03T20:52:15.662Z,9.42
2018-12-03T20:54:44.717Z,9.22
2018-12-03T20:57:13.797Z,9.16
2018-12-03T20:59:42.837Z,9.07
2018-12-03T21:02:14.680Z,8.98
2018-12-03T21:04:43.326Z,8.89
2018-12-03T21:07:12.964Z,8.80
2018-12-03T21:09:41.640Z,8.65
2018-12-03T21:12:10.670Z,8.43
2018-12-03T21:14:39.365Z,8.32
2018-12-03T21:17:08.474Z,8.12
2018-12-03T21:19:37.125Z,8.03
2018-12-03T21:22:05.840Z,7.94
2018-12-03T21:24:36.850Z,7.90
2018-12-03T21:27:05.938Z,7.87
2018-12-03T21:29:34.956Z,7.85
2018-12-03T21:32:03.601Z,7.84
2018-12-03T21:34:32.306Z,7.80
2018-12-03T21:37:01.252Z,7.77
2018-12-03T21:39:31.583Z,7.78
2018-12-03T21:42:00.245Z,7.76
2018-12-03T21:44:29.110Z,7.73
2018-12-03T21:46:58.254Z,7.75
2018-12-03T21:49:27.388Z,7.74
2018-12-03T21:51:56.212Z,7.71
2018-12-03T21:54:25.533Z,7.69
2018-12-03T21:56:54.707Z,7.70
2018-12-03T21:59:23.453Z,7.69
2018-12-03T22:01:52.123Z,7.65
2018-12-03T22:04:24.188Z,7.63
2018-12-03T22:06:52.878Z,7.58
2018-12-03T22:09:21.898Z,7.59
2018-12-03T22:11:50.682Z,7.57
2018-12-03T22:14:19.282Z,7.59
2018-12-03T22:16:48.131Z,7.51
2018-12-03T22:19:16.918Z,7.55
2018-12-03T22:21:46.053Z,7.47
2018-12-03T22:24:15.136Z,7.55
2018-12-03T22:26:45.109Z,7.54
2018-12-03T22:29:13.769Z,7.53
2018-12-03T22:31:42.846Z,7.49
2018-12-03T22:34:11.671Z,7.49
2018-12-03T22:36:41.025Z,7.51
2018-12-03T22:39:10.754Z,7.48
2018-12-03T22:41:40.518Z,7.51
2018-12-03T22:44:09.255Z,7.46
2018-12-03T22:46:38.638Z,7.41
2018-12-03T22:49:07.607Z,7.41
2018-12-03T22:51:36.325Z,7.40
2018-12-03T22:54:05.800Z,7.39
2018-12-03T22:56:34.783Z,7.39
2018-12-03T22:59:03.684Z,7.38
2018-12-03T23:01:32.405Z,7.39
2018-12-03T23:04:01.362Z,7.37
2018-12-03T23:06:30.214Z,7.40
2018-12-03T23:08:59.155Z,7.39
2018-12-03T23:11:28.367Z,7.38
2018-12-03T23:13:57.484Z,7.32
2018-12-03T23:16:26.169Z,7.34
2018-12-03T23:18:54.862Z,7.26
2018-12-03T23:21:23.892Z,7.24
2018-12-03T23:23:52.569Z,7.20
2018-12-03T23:26:22.604Z,7.20
2018-12-03T23:28:51.376Z,7.20
2018-12-03T23:31:20.060Z,7.19
2018-12-03T23:33:48.716Z,7.11
2018-12-03T23:36:19.033Z,7.04
2018-12-03T23:38:48.204Z,7.02
2018-12-03T23:41:17.302Z,6.99
2018-12-03T23:43:46.628Z,6.89
2018-12-03T23:46:15.730Z,6.80
2018-12-03T23:48:44.359Z,6.70
2018-12-03T23:51:14.916Z,6.66
2018-12-03T23:53:43.556Z,6.64
2018-12-03T23:56:12.403Z,6.58
2018-12-03T23:58:41.022Z,6.49
